createdAt,value
2019-02-26T00:00:56.493Z,41.17
2019-02-26T00:06:04.844Z,42.87
2019-02-26T00:11:11.346Z,47.13
2019-02-26T00:16:20.556Z,56.10
2019-02-26T00:21:29.299Z,54.00
2019-02-26T00:26:38.475Z,56.27
2019-02-26T00:31:46.057Z,60.70
2019-02-26T00:36:53.397Z,49.27
2019-02-26T00:42:02.742Z,47.83
2019-02-26T00:47:10.475Z,51.40
2019-02-26T00:52:17.559Z,50.43
2019-02-26T00:57:27.145Z,48.53
2019-02-26T01:02:31.762Z,47.43
2019-02-26T01:07:38.562Z,57.77
2019-02-26T01:12:44.757Z,55.87
2019-02-26T01:17:51.763Z,53.87
2019-02-26T01:22:58.839Z,51.53
2019-02-26T01:28:05.174Z,49.30
2019-02-26T01:33:11.618Z,50.77
2019-02-26T01:38:18.907Z,51.87
2019-02-26T01:43:26.442Z,49.63
2019-02-26T01:48:34.345Z,50.77
2019-02-26T01:53:42.255Z,48.93
2019-02-26T01:58:56.322Z,46.93
2019-02-26T02:03:57.824Z,48.13
2019-02-26T02:09:04.073Z,52.33
2019-02-26T02:14:12.749Z,44.83
2019-02-26T02:19:22.645Z,41.47
2019-02-26T02:24:29.352Z,47.43
2019-02-26T02:29:36.531Z,42.47
2019-02-26T02:34:43.106Z,42.33
2019-02-26T02:39:50.830Z,48.93
2019-02-26T02:44:58.737Z,42.43
2019-02-26T02:50:08.711Z,49.83
2019-02-26T02:55:16.103Z,49.10
2019-02-26T03:00:23.909Z,52.27
2019-02-26T03:05:31.493Z,46.07
2019-02-26T03:10:40.287Z,39.13
2019-02-26T03:15:47.603Z,36.93
2019-02-26T03:20:56.578Z,33.63
2019-02-26T03:26:02.304Z,28.87
2019-02-26T03:31:10.474Z,27.23
2019-02-26T03:36:19.678Z,32.07
2019-02-26T03:41:28.851Z,30.77
2019-02-26T03:46:34.517Z,37.50
2019-02-26T03:51:41.760Z,34.90
2019-02-26T03:56:49.022Z,36.50
2019-02-26T04:01:55.179Z,34.10
2019-02-26T04:07:04.284Z,31.20
2019-02-26T04:12:13.575Z,28.40
2019-02-26T04:17:23.187Z,32.37
2019-02-26T04:22:30.493Z,28.30
2019-02-26T04:28:10.923Z,22.43
2019-02-26T04:34:13.354Z,23.53
2019-02-26T04:39:40.327Z,18.17
2019-02-26T04:45:22.541Z,21.13
2019-02-26T04:50:34.989Z,22.83
2019-02-26T04:55:41.332Z,31.37
2019-02-26T05:00:46.813Z,39.37
2019-02-26T05:05:56.038Z,40.03
2019-02-26T05:11:01.202Z,38.63
2019-02-26T05:16:08.718Z,32.90
2019-02-26T05:21:15.114Z,39.87
2019-02-26T05:26:21.368Z,33.97
2019-02-26T05:31:29.750Z,36.77
2019-02-26T05:36:39.100Z,44.87
2019-02-26T05:41:44.276Z,42.10
2019-02-26T05:46:53.999Z,36.50
2019-02-26T05:52:02.119Z,42.07
2019-02-26T05:57:25.519Z,38.83
2019-02-26T06:02:19.548Z,32.07
2019-02-26T06:07:29.736Z,25.20
2019-02-26T06:12:35.479Z,33.83
2019-02-26T06:17:45.237Z,30.37
2019-02-26T06:22:52.240Z,34.00
2019-02-26T06:28:04.526Z,36.07
2019-02-26T06:33:11.647Z,30.93
2019-02-26T06:38:17.682Z,30.40
2019-02-26T06:43:24.167Z,46.20
2019-02-26T06:48:32.359Z,76.47
2019-02-26T06:53:39.710Z,42.73
2019-02-26T06:58:47.436Z,36.00
2019-02-26T07:03:55.771Z,44.43
2019-02-26T07:09:02.094Z,54.63
2019-02-26T07:14:10.312Z,40.17
2019-02-26T07:19:17.670Z,34.90
2019-02-26T07:24:24.840Z,41.83
2019-02-26T07:29:33.221Z,35.70
2019-02-26T07:34:42.795Z,39.17
2019-02-26T07:39:51.437Z,47.47
2019-02-26T07:44:58.865Z,33.43
2019-02-26T07:50:06.792Z,50.67
2019-02-26T07:55:15.342Z,36.80
2019-02-26T08:00:23.343Z,57.13
2019-02-26T08:05:32.418Z,21.87
2019-02-26T08:10:42.861Z,18.67
2019-02-26T08:15:49.899Z,26.13
2019-02-26T08:21:00.733Z,29.00
2019-02-26T08:26:07.623Z,34.13
2019-02-26T08:31:17.856Z,34.70
2019-02-26T08:36:23.649Z,33.17
2019-02-26T08:41:31.338Z,32.83
2019-02-26T08:46:39.868Z,29.53
2019-02-26T08:51:47.463Z,31.70
2019-02-26T08:56:53.918Z,40.03
2019-02-26T09:02:01.329Z,29.23
2019-02-26T09:07:08.982Z,32.23
2019-02-26T09:12:17.383Z,23.00
2019-02-26T09:17:26.683Z,22.37
2019-02-26T09:22:31.523Z,31.10
2019-02-26T09:27:42.752Z,24.37
2019-02-26T09:32:47.587Z,23.53
2019-02-26T09:37:57.123Z,32.80
2019-02-26T09:43:02.895Z,23.60
2019-02-26T09:48:10.419Z,24.70
2019-02-26T09:53:18.085Z,31.87
2019-02-26T09:58:25.350Z,28.20
2019-02-26T10:03:36.255Z,22.97
2019-02-26T10:08:40.935Z,29.60
2019-02-26T10:13:51.237Z,26.93
2019-02-26T10:18:58.148Z,25.97
2019-02-26T10:24:04.732Z,24.67
2019-02-26T10:29:12.686Z,26.17
2019-02-26T10:34:25.492Z,29.80
2019-02-26T10:39:32.115Z,23.23
2019-02-26T10:44:39.667Z,26.70
2019-02-26T10:49:46.828Z,23.67
2019-02-26T10:54:54.583Z,24.83
2019-02-26T11:00:02.578Z,21.27
2019-02-26T11:05:11.245Z,30.37
2019-02-26T11:10:20.824Z,22.00
2019-02-26T11:15:31.075Z,24.77
2019-02-26T11:20:36.833Z,27.73
2019-02-26T11:25:43.243Z,19.53
2019-02-26T11:30:53.694Z,33.63
2019-02-26T11:35:59.671Z,22.33
2019-02-26T11:41:06.827Z,23.37
2019-02-26T11:46:15.115Z,20.40
2019-02-26T11:51:21.546Z,23.27
2019-02-26T11:56:28.248Z,24.30
2019-02-26T12:01:36.851Z,20.40
2019-02-26T12:06:42.570Z,25.10
2019-02-26T12:11:49.811Z,21.33
2019-02-26T12:16:57.410Z,23.83
2019-02-26T12:22:05.858Z,29.87
2019-02-26T12:27:18.095Z,25.10
2019-02-26T12:32:24.360Z,27.10
2019-02-26T12:37:31.368Z,24.67
2019-02-26T12:42:39.038Z,21.87
2019-02-26T12:47:48.726Z,23.70
2019-02-26T12:52:56.852Z,21.33
2019-02-26T12:58:02.080Z,21.13
2019-02-26T13:03:12.685Z,21.53
2019-02-26T13:08:20.529Z,23.40
2019-02-26T13:13:28.760Z,24.93
2019-02-26T13:18:34.933Z,26.83
2019-02-26T13:23:43.186Z,24.10
2019-02-26T13:28:52.773Z,21.50
2019-02-26T13:34:00.413Z,19.40
2019-02-26T13:39:08.904Z,24.07
2019-02-26T13:44:15.297Z,20.73
2019-02-26T13:49:21.683Z,26.43
2019-02-26T13:54:28.067Z,23.90
2019-02-26T13:59:34.495Z,23.10
2019-02-26T14:04:42.319Z,28.00
2019-02-26T14:09:50.358Z,31.27
2019-02-26T14:14:56.638Z,26.50
2019-02-26T14:20:03.684Z,25.27
2019-02-26T14:25:11.794Z,25.07
2019-02-26T14:30:18.811Z,37.57
2019-02-26T14:35:26.181Z,22.77
2019-02-26T14:40:32.586Z,23.30
2019-02-26T14:45:40.589Z,23.80
2019-02-26T14:50:48.737Z,25.17
2019-02-26T14:55:55.460Z,23.27
2019-02-26T15:01:04.468Z,22.53
2019-02-26T15:06:12.080Z,18.13
2019-02-26T15:11:20.318Z,23.70
2019-02-26T15:16:26.737Z,17.20
2019-02-26T15:21:33.191Z,22.53
2019-02-26T15:26:41.439Z,19.47
2019-02-26T15:31:48.986Z,23.37
2019-02-26T15:36:57.892Z,18.07
2019-02-26T15:42:04.673Z,22.87
2019-02-26T15:47:11.347Z,17.07
2019-02-26T15:52:21.522Z,21.27
2019-02-26T15:57:28.552Z,23.33
2019-02-26T16:02:36.754Z,23.37
2019-02-26T16:07:43.051Z,19.67
2019-02-26T16:12:50.551Z,32.83
2019-02-26T16:17:59.016Z,17.53
2019-02-26T16:23:07.712Z,22.37
2019-02-26T16:28:14.115Z,21.03
2019-02-26T16:33:21.380Z,21.03
2019-02-26T16:38:27.827Z,19.87
2019-02-26T16:43:34.069Z,22.73
2019-02-26T16:48:41.609Z,21.13
2019-02-26T16:53:49.115Z,18.50
2019-02-26T16:58:56.878Z,21.00
2019-02-26T17:04:05.602Z,22.90
2019-02-26T17:09:12.078Z,20.50
2019-02-26T17:14:21.755Z,24.23
2019-02-26T17:19:29.116Z,23.07
2019-02-26T17:24:36.795Z,21.80
2019-02-26T17:29:44.037Z,27.07
2019-02-26T17:34:53.789Z,20.13
2019-02-26T17:40:03.310Z,22.03
2019-02-26T17:45:11.656Z,29.30
2019-02-26T17:50:23.979Z,26.03
2019-02-26T17:55:31.730Z,36.87
2019-02-26T18:00:40.972Z,30.60
2019-02-26T18:05:51.618Z,31.47
2019-02-26T18:10:58.491Z,33.70
2019-02-26T18:16:09.140Z,37.83
2019-02-26T18:21:13.942Z,36.50
2019-02-26T18:26:21.535Z,36.57
2019-02-26T18:31:31.191Z,38.63
2019-02-26T18:36:39.205Z,28.13
2019-02-26T18:41:50.674Z,35.97
2019-02-26T18:46:54.862Z,32.20
2019-02-26T18:52:01.497Z,35.47
2019-02-26T18:57:11.297Z,28.60
2019-02-26T19:02:17.603Z,27.07
2019-02-26T19:07:24.008Z,31.57
2019-02-26T19:12:31.487Z,28.73
2019-02-26T19:17:38.812Z,26.40
2019-02-26T19:22:46.053Z,30.23
2019-02-26T19:27:53.066Z,34.00
2019-02-26T19:33:09.309Z,29.57
2019-02-26T19:38:16.901Z,26.03
2019-02-26T19:43:23.798Z,28.57
2019-02-26T19:48:33.855Z,25.17
2019-02-26T19:53:41.148Z,23.83
2019-02-26T19:58:48.182Z,24.13
2019-02-26T20:03:54.599Z,28.90
2019-02-26T20:09:05.749Z,27.03
2019-02-26T20:14:11.576Z,30.80
2019-02-26T20:19:18.759Z,34.23
2019-02-26T20:24:26.251Z,29.50
2019-02-26T20:29:32.806Z,34.37
2019-02-26T20:34:40.673Z,25.67
2019-02-26T20:39:48.277Z,31.87
2019-02-26T20:44:59.025Z,64.90
2019-02-26T20:50:02.421Z,34.00
2019-02-26T20:55:10.955Z,35.20
2019-02-26T21:00:19.442Z,28.83
2019-02-26T21:05:27.656Z,27.60
2019-02-26T21:10:34.111Z,27.93
2019-02-26T21:15:41.349Z,28.43
2019-02-26T21:20:49.290Z,31.80
2019-02-26T21:25:57.134Z,35.30
2019-02-26T21:31:03.398Z,30.63
2019-02-26T21:36:11.125Z,29.23
2019-02-26T21:41:21.060Z,28.30
2019-02-26T21:46:29.408Z,31.73
2019-02-26T21:51:36.932Z,30.60
2019-02-26T21:56:43.106Z,31.80
2019-02-26T22:01:50.554Z,25.17
2019-02-26T22:06:58.127Z,33.50
2019-02-26T22:12:04.458Z,28.83
2019-02-26T22:17:11.066Z,29.70
2019-02-26T22:22:18.696Z,26.57
2019-02-26T22:27:25.214Z,29.90
2019-02-26T22:32:32.688Z,27.73
2019-02-26T22:37:41.474Z,27.53
2019-02-26T22:42:48.803Z,26.00
2019-02-26T22:47:54.823Z,24.53
2019-02-26T22:53:03.784Z,24.33
2019-02-26T22:58:09.811Z,21.03
2019-02-26T23:03:17.594Z,23.60
2019-02-26T23:08:23.797Z,24.33
2019-02-26T23:13:32.573Z,20.70
2019-02-26T23:18:40.516Z,25.77
2019-02-26T23:23:47.828Z,22.47
2019-02-26T23:28:54.854Z,21.37
2019-02-26T23:34:02.267Z,17.20
2019-02-26T23:39:12.651Z,17.77
2019-02-26T23:44:20.272Z,17.57
2019-02-26T23:49:26.747Z,20.13
2019-02-26T23:54:33.966Z,16.40
2019-02-26T23:59:41.417Z,21.03
